createdAt,value
2019-01-17T00:02:22.639Z,17.27
2019-01-17T00:05:15.675Z,16.93
2019-01-17T00:08:09.155Z,15.60
2019-01-17T00:11:08.346Z,16.37
2019-01-17T00:14:10.492Z,16.90
2019-01-17T00:16:59.389Z,18.30
2019-01-17T00:19:58.629Z,17.83
2019-01-17T00:22:47.445Z,18.47
2019-01-17T00:25:37.993Z,19.07
2019-01-17T00:28:28.096Z,19.87
2019-01-17T00:31:17.464Z,18.60
2019-01-17T00:34:22.814Z,19.43
2019-01-17T00:37:11.765Z,19.67
2019-01-17T00:40:03.475Z,20.10
2019-01-17T00:43:05.885Z,21.97
2019-01-17T00:46:02.034Z,19.67
2019-01-17T00:48:43.883Z,22.10
2019-01-17T00:51:34.172Z,22.93
2019-01-17T00:54:25.367Z,23.67
2019-01-17T00:57:09.036Z,21.70
2019-01-17T01:00:02.247Z,26.23
2019-01-17T01:02:44.583Z,23.53
2019-01-17T01:05:33.466Z,24.57
2019-01-17T01:08:29.894Z,22.20
2019-01-17T01:11:13.340Z,21.20
2019-01-17T01:14:02.680Z,20.70
2019-01-17T01:17:20.360Z,23.63
2019-01-17T01:20:18.119Z,22.25
2019-01-17T01:23:10.891Z,26.47
2019-01-17T01:26:01.265Z,28.20
2019-01-17T01:28:41.548Z,25.60
2019-01-17T01:31:29.392Z,23.57
2019-01-17T01:34:18.042Z,28.33
2019-01-17T01:37:06.720Z,28.13
2019-01-17T01:39:58.648Z,27.90
2019-01-17T01:42:52.728Z,25.50
2019-01-17T01:46:04.050Z,23.93
2019-01-17T01:48:53.000Z,22.23
2019-01-17T01:51:46.125Z,24.03
2019-01-17T01:54:22.024Z,24.82
2019-01-17T01:56:50.281Z,22.67
2019-01-17T01:59:21.643Z,24.35
2019-01-17T02:01:55.180Z,23.80
2019-01-17T02:04:26.410Z,22.50
2019-01-17T02:06:57.690Z,23.00
2019-01-17T02:09:28.832Z,21.73
2019-01-17T02:12:00.094Z,24.97
2019-01-17T02:14:31.805Z,21.60
2019-01-17T02:17:03.818Z,21.90
2019-01-17T02:19:35.115Z,24.47
2019-01-17T02:22:06.583Z,21.63
2019-01-17T02:24:37.927Z,20.57
2019-01-17T02:27:09.306Z,21.20
2019-01-17T02:29:42.307Z,20.60
2019-01-17T02:32:13.647Z,23.17
2019-01-17T02:34:45.101Z,20.13
2019-01-17T02:37:16.470Z,19.30
2019-01-17T02:39:47.599Z,21.13
2019-01-17T02:42:19.728Z,19.70
2019-01-17T02:44:50.955Z,19.97
2019-01-17T02:47:22.128Z,21.93
2019-01-17T02:49:53.507Z,19.80
2019-01-17T02:52:24.793Z,20.35
2019-01-17T02:54:56.498Z,21.13
2019-01-17T02:57:29.892Z,20.03
2019-01-17T03:00:01.116Z,16.90
2019-01-17T03:02:33.357Z,15.20
2019-01-17T03:05:04.815Z,16.57
2019-01-17T03:07:36.231Z,17.97
2019-01-17T03:10:11.061Z,16.80
2019-01-17T03:12:42.254Z,17.00
2019-01-17T03:15:13.649Z,17.30
2019-01-17T03:17:44.872Z,17.90
2019-01-17T03:20:16.323Z,16.37
2019-01-17T03:22:47.554Z,15.77
2019-01-17T03:25:20.056Z,16.93
2019-01-17T03:27:52.026Z,20.57
2019-01-17T03:30:23.269Z,17.35
2019-01-17T03:32:57.590Z,20.73
2019-01-17T03:35:28.775Z,17.27
2019-01-17T03:38:01.200Z,17.20
2019-01-17T03:40:32.393Z,18.80
2019-01-17T03:43:03.650Z,14.73
2019-01-17T03:45:37.115Z,13.88
2019-01-17T03:48:08.536Z,20.03
2019-01-17T03:50:39.960Z,19.67
2019-01-17T03:53:11.230Z,16.32
2019-01-17T03:55:42.620Z,18.80
2019-01-17T03:58:14.014Z,13.60
2019-01-17T04:00:45.483Z,17.17
2019-01-17T04:03:16.663Z,17.45
2019-01-17T04:05:48.101Z,17.93
2019-01-17T04:08:19.287Z,21.20
2019-01-17T04:10:53.243Z,21.50
2019-01-17T04:13:24.272Z,25.10
2019-01-17T04:15:55.950Z,24.67
2019-01-17T04:18:27.044Z,22.67
2019-01-17T04:20:59.869Z,25.00
2019-01-17T04:23:31.319Z,20.03
2019-01-17T04:26:02.659Z,20.13
2019-01-17T04:28:33.995Z,21.27
2019-01-17T04:31:06.432Z,19.87
2019-01-17T04:33:38.506Z,23.60
2019-01-17T04:36:09.732Z,24.10
2019-01-17T04:38:41.163Z,19.23
2019-01-17T04:41:13.197Z,19.82
2019-01-17T04:43:44.352Z,18.67
2019-01-17T04:46:15.648Z,18.10
2019-01-17T04:48:46.943Z,15.80
2019-01-17T04:51:20.423Z,16.03
2019-01-17T04:53:52.131Z,12.90
2019-01-17T04:56:23.402Z,11.13
2019-01-17T04:58:54.793Z,11.23
2019-01-17T05:01:25.950Z,11.47
2019-01-17T05:03:57.535Z,12.60
2019-01-17T05:06:28.948Z,14.00
2019-01-17T05:09:00.339Z,14.50
2019-01-17T05:11:32.733Z,14.00
2019-01-17T05:14:04.090Z,18.40
2019-01-17T05:16:35.194Z,14.30
2019-01-17T05:19:06.577Z,12.87
2019-01-17T05:21:38.189Z,14.37
2019-01-17T05:24:09.263Z,17.53
2019-01-17T05:26:40.663Z,15.27
2019-01-17T05:29:12.030Z,15.00
2019-01-17T05:31:43.238Z,12.33
2019-01-17T05:34:14.515Z,12.35
2019-01-17T05:36:45.848Z,11.67
2019-01-17T05:39:18.304Z,11.87
2019-01-17T05:41:49.731Z,12.67
2019-01-17T05:44:20.973Z,11.33
2019-01-17T05:46:53.053Z,13.17
2019-01-17T05:49:24.209Z,11.27
2019-01-17T05:51:58.750Z,13.83
2019-01-17T05:54:30.001Z,11.67
2019-01-17T05:57:01.094Z,13.00
2019-01-17T05:59:32.319Z,11.47
2019-01-17T06:02:03.554Z,11.00
2019-01-17T06:04:36.333Z,12.10
2019-01-17T06:07:08.159Z,11.03
2019-01-17T06:09:39.395Z,14.77
2019-01-17T06:12:10.688Z,13.00
2019-01-17T06:14:42.159Z,13.45
2019-01-17T06:17:13.534Z,13.32
2019-01-17T06:19:44.708Z,10.77
2019-01-17T06:22:15.913Z,10.65
2019-01-17T06:24:47.048Z,10.80
2019-01-17T06:27:18.233Z,9.90
2019-01-17T06:29:51.906Z,10.87
2019-01-17T06:32:23.400Z,13.97
2019-01-17T06:34:55.058Z,10.90
2019-01-17T06:37:26.346Z,10.47
2019-01-17T06:39:57.389Z,10.50
2019-01-17T06:42:28.787Z,10.87
2019-01-17T06:45:01.697Z,11.27
2019-01-17T06:47:33.387Z,12.40
2019-01-17T06:50:05.847Z,19.23
2019-01-17T06:52:37.460Z,18.57
2019-01-17T06:55:08.870Z,17.00
2019-01-17T06:57:39.896Z,14.07
2019-01-17T07:00:13.265Z,10.48
2019-01-17T07:02:45.905Z,10.50
2019-01-17T07:05:17.365Z,11.03
2019-01-17T07:07:48.732Z,10.20
2019-01-17T07:10:19.766Z,9.33
2019-01-17T07:12:50.831Z,8.57
2019-01-17T07:15:22.093Z,9.30
2019-01-17T07:17:53.262Z,10.27
2019-01-17T07:20:24.482Z,8.80
2019-01-17T07:22:55.621Z,8.27
2019-01-17T07:25:26.842Z,9.60
2019-01-17T07:27:58.065Z,8.13
2019-01-17T07:30:29.173Z,9.30
2019-01-17T07:33:00.322Z,9.97
2019-01-17T07:35:31.468Z,10.23
2019-01-17T07:38:02.526Z,10.13
2019-01-17T07:40:33.490Z,9.63
2019-01-17T07:43:04.767Z,10.20
2019-01-17T07:45:35.977Z,10.47
2019-01-17T07:48:07.025Z,9.77
2019-01-17T07:50:38.173Z,12.50
2019-01-17T07:53:09.470Z,13.47
2019-01-17T07:55:40.844Z,12.37
2019-01-17T07:58:11.854Z,10.95
2019-01-17T08:00:43.266Z,13.03
2019-01-17T08:03:14.447Z,17.80
2019-01-17T08:05:45.655Z,17.17
2019-01-17T08:08:17.526Z,13.90
2019-01-17T08:10:49.582Z,13.17
2019-01-17T08:13:20.806Z,12.90
2019-01-17T08:15:51.801Z,14.47
2019-01-17T08:18:23.083Z,15.40
2019-01-17T08:20:54.061Z,18.37
2019-01-17T08:23:26.377Z,19.07
2019-01-17T08:25:57.614Z,18.20
2019-01-17T08:28:28.881Z,14.93
2019-01-17T08:31:00.150Z,15.13
2019-01-17T08:33:31.584Z,15.77
2019-01-17T08:36:02.742Z,13.65
2019-01-17T08:38:34.043Z,12.83
2019-01-17T08:41:05.916Z,11.93
2019-01-17T08:43:37.008Z,12.67
2019-01-17T08:46:07.963Z,15.53
2019-01-17T08:48:39.367Z,14.57
2019-01-17T08:51:10.710Z,11.33
2019-01-17T08:53:42.063Z,13.03
2019-01-17T08:56:13.270Z,12.20
2019-01-17T08:58:45.080Z,12.63
2019-01-17T09:01:16.748Z,15.10
2019-01-17T09:03:48.470Z,16.00
2019-01-17T09:06:19.837Z,13.15
2019-01-17T09:08:51.278Z,16.73
2019-01-17T09:11:22.787Z,16.43
2019-01-17T09:13:54.000Z,14.07
2019-01-17T09:16:25.385Z,17.30
2019-01-17T09:18:56.857Z,13.53
2019-01-17T09:21:28.064Z,16.27
2019-01-17T09:23:59.438Z,12.83
2019-01-17T09:26:30.677Z,11.07
2019-01-17T09:29:01.651Z,11.70
2019-01-17T09:31:32.866Z,10.83
2019-01-17T09:34:04.112Z,14.43
2019-01-17T09:36:35.124Z,15.33
2019-01-17T09:39:08.956Z,14.77
2019-01-17T09:41:40.163Z,11.23
2019-01-17T09:44:11.606Z,12.63
2019-01-17T09:46:42.977Z,9.07
2019-01-17T09:49:14.088Z,9.47
2019-01-17T09:51:45.280Z,8.97
2019-01-17T09:54:16.231Z,7.65
2019-01-17T09:56:47.462Z,9.40
2019-01-17T09:59:20.046Z,8.13
2019-01-17T10:01:51.162Z,5.37
2019-01-17T10:04:26.583Z,6.57
2019-01-17T10:06:55.185Z,5.80
2019-01-17T10:09:26.407Z,6.47
2019-01-17T10:11:57.563Z,7.03
2019-01-17T10:14:28.820Z,7.20
2019-01-17T10:17:41.152Z,4.90
2019-01-17T10:20:40.324Z,4.62
2019-01-17T10:24:14.449Z,6.17
2019-01-17T10:27:13.003Z,4.23
2019-01-17T10:29:50.806Z,5.13
2019-01-17T10:33:08.824Z,4.87
2019-01-17T10:36:07.963Z,5.40
2019-01-17T10:38:58.308Z,6.30
2019-01-17T10:41:46.080Z,6.33
2019-01-17T10:44:49.499Z,8.35
2019-01-17T10:48:00.419Z,6.03
2019-01-17T10:51:01.861Z,5.87
2019-01-17T10:53:55.612Z,7.63
2019-01-17T10:57:07.264Z,8.33
2019-01-17T11:00:06.557Z,9.33
2019-01-17T11:03:17.513Z,11.67
2019-01-17T11:06:24.301Z,11.53
2019-01-17T11:09:48.464Z,13.40
2019-01-17T11:12:36.001Z,12.93
2019-01-17T11:15:25.690Z,15.50
2019-01-17T11:18:24.688Z,12.37
2019-01-17T11:21:51.689Z,10.43
2019-01-17T11:25:00.569Z,10.72
2019-01-17T11:28:14.831Z,8.47
2019-01-17T11:31:16.410Z,9.60
2019-01-17T11:34:14.349Z,10.48
2019-01-17T11:37:24.780Z,7.90
2019-01-17T11:40:35.754Z,7.70
2019-01-17T11:43:42.531Z,8.97
2019-01-17T11:46:45.727Z,7.50
2019-01-17T11:50:10.966Z,7.83
2019-01-17T11:53:17.498Z,8.27
2019-01-17T11:56:20.470Z,7.70
2019-01-17T11:59:37.444Z,8.77
2019-01-17T12:03:07.637Z,8.00
2019-01-17T12:05:38.753Z,11.50
2019-01-17T12:08:10.005Z,8.23
2019-01-17T12:10:41.479Z,7.40
2019-01-17T12:13:17.408Z,8.90
2019-01-17T12:15:47.632Z,9.27
2019-01-17T12:18:18.892Z,7.40
2019-01-17T12:20:53.696Z,7.50
2019-01-17T12:23:24.805Z,7.63
2019-01-17T12:25:56.129Z,8.63
2019-01-17T12:28:27.183Z,7.47
2019-01-17T12:30:58.507Z,7.53
2019-01-17T12:33:29.755Z,6.83
2019-01-17T12:36:01.263Z,6.57
2019-01-17T12:38:32.972Z,6.27
2019-01-17T12:41:04.762Z,7.00
2019-01-17T12:43:36.898Z,6.23
2019-01-17T12:46:08.325Z,5.93
2019-01-17T12:48:39.398Z,7.10
2019-01-17T12:51:10.895Z,5.80
2019-01-17T12:53:42.154Z,7.90
2019-01-17T12:56:13.217Z,5.33
2019-01-17T12:58:44.892Z,5.73
2019-01-17T13:01:16.230Z,7.25
2019-01-17T13:03:47.545Z,5.40
2019-01-17T13:06:18.794Z,6.15
2019-01-17T13:08:50.118Z,6.70
2019-01-17T13:11:21.685Z,5.05
2019-01-17T13:13:52.941Z,5.50
2019-01-17T13:16:24.025Z,5.73
2019-01-17T13:18:55.217Z,5.40
2019-01-17T13:21:26.542Z,6.33
2019-01-17T13:23:57.700Z,5.27
2019-01-17T13:26:29.310Z,7.57
2019-01-17T13:29:00.688Z,5.57
2019-01-17T13:31:31.925Z,5.77
2019-01-17T13:34:02.963Z,6.33
2019-01-17T13:36:40.141Z,6.10
2019-01-17T13:39:08.514Z,7.60
2019-01-17T13:41:39.678Z,7.20
2019-01-17T13:44:11.732Z,8.57
2019-01-17T13:46:42.936Z,8.10
2019-01-17T13:49:13.973Z,8.13
2019-01-17T13:51:45.191Z,9.03
2019-01-17T13:54:17.179Z,7.40
2019-01-17T13:56:48.838Z,7.47
2019-01-17T13:59:19.865Z,7.87
2019-01-17T14:01:50.920Z,8.47
2019-01-17T14:04:23.402Z,10.75
2019-01-17T14:06:54.577Z,8.53
2019-01-17T14:09:25.684Z,10.03
2019-01-17T14:11:57.049Z,8.80
2019-01-17T14:14:28.359Z,8.60
2019-01-17T14:16:59.454Z,12.47
2019-01-17T14:19:30.542Z,8.07
2019-01-17T14:22:03.434Z,7.83
2019-01-17T14:24:34.802Z,8.33
2019-01-17T14:27:06.030Z,8.33
2019-01-17T14:29:37.217Z,10.57
2019-01-17T14:32:08.407Z,8.80
2019-01-17T14:34:39.485Z,10.00
2019-01-17T14:37:10.459Z,7.70
2019-01-17T14:39:41.946Z,13.07
2019-01-17T14:42:13.824Z,12.70
2019-01-17T14:44:45.750Z,8.57
2019-01-17T14:47:16.735Z,7.45
2019-01-17T14:49:47.865Z,7.80
2019-01-17T14:52:20.035Z,7.77
2019-01-17T14:54:51.784Z,7.47
2019-01-17T14:57:22.946Z,8.83
2019-01-17T14:59:54.144Z,7.67
2019-01-17T15:02:25.458Z,8.13
2019-01-17T15:04:56.547Z,10.80
2019-01-17T15:07:28.349Z,6.40
2019-01-17T15:09:59.337Z,8.50
2019-01-17T15:12:33.193Z,10.43
2019-01-17T15:15:04.961Z,8.17
2019-01-17T15:17:36.284Z,7.30
2019-01-17T15:20:10.911Z,9.43
2019-01-17T15:22:42.593Z,9.37
2019-01-17T15:25:13.945Z,9.17
2019-01-17T15:27:45.739Z,10.47
2019-01-17T15:30:19.367Z,9.98
2019-01-17T15:32:51.094Z,9.10
2019-01-17T15:35:22.989Z,8.03
2019-01-17T15:37:54.475Z,8.10
2019-01-17T15:40:27.862Z,7.57
2019-01-17T15:42:59.403Z,10.10
2019-01-17T15:45:30.940Z,11.20
2019-01-17T15:48:02.427Z,6.97
2019-01-17T15:50:35.043Z,6.90
2019-01-17T15:53:06.201Z,9.80
2019-01-17T15:55:37.645Z,7.73
2019-01-17T15:58:08.990Z,10.07
2019-01-17T16:00:40.164Z,8.93
2019-01-17T16:03:11.337Z,9.73
2019-01-17T16:05:43.211Z,9.30
2019-01-17T16:08:15.045Z,9.00
2019-01-17T16:10:47.467Z,10.57
2019-01-17T16:13:18.739Z,10.20
2019-01-17T16:15:50.204Z,9.30
2019-01-17T16:18:21.798Z,10.53
2019-01-17T16:20:53.107Z,14.87
2019-01-17T16:23:24.556Z,11.60
2019-01-17T16:25:55.899Z,10.10
2019-01-17T16:28:27.307Z,12.33
2019-01-17T16:30:58.531Z,10.67
2019-01-17T16:33:29.967Z,11.20
2019-01-17T16:36:01.046Z,9.90
2019-01-17T16:38:32.765Z,12.67
2019-01-17T16:41:04.270Z,11.15
2019-01-17T16:43:37.206Z,10.37
2019-01-17T16:46:08.517Z,10.57
2019-01-17T16:48:40.227Z,10.47
2019-01-17T16:51:11.426Z,12.87
2019-01-17T16:53:43.044Z,11.37
2019-01-17T16:56:14.402Z,10.47
2019-01-17T16:58:45.564Z,13.73
2019-01-17T17:01:16.861Z,10.90
2019-01-17T17:03:48.096Z,11.47
2019-01-17T17:06:19.090Z,11.85
2019-01-17T17:08:50.754Z,11.43
2019-01-17T17:11:22.613Z,11.73
2019-01-17T17:13:53.769Z,11.77
2019-01-17T17:16:26.206Z,10.55
2019-01-17T17:18:57.384Z,10.30
2019-01-17T17:21:28.590Z,12.70
2019-01-17T17:24:00.151Z,12.17
2019-01-17T17:26:31.400Z,11.87
2019-01-17T17:29:02.507Z,11.50
2019-01-17T17:31:33.677Z,12.27
2019-01-17T17:34:06.155Z,13.73
2019-01-17T17:36:37.425Z,12.67
2019-01-17T17:39:09.986Z,14.20
2019-01-17T17:41:41.070Z,12.17
2019-01-17T17:44:12.462Z,12.83
2019-01-17T17:46:43.909Z,16.67
2019-01-17T17:49:15.138Z,16.23
2019-01-17T17:51:46.268Z,14.67
2019-01-17T17:54:17.342Z,18.63
2019-01-17T17:56:50.138Z,15.37
2019-01-17T17:59:21.188Z,14.78
2019-01-17T18:01:59.022Z,17.77
2019-01-17T18:04:30.261Z,17.57
2019-01-17T18:07:01.335Z,24.10
2019-01-17T18:09:32.589Z,20.67
2019-01-17T18:12:04.244Z,22.67
2019-01-17T18:14:35.736Z,21.33
2019-01-17T18:17:07.336Z,20.37
2019-01-17T18:19:38.512Z,22.13
2019-01-17T18:22:09.675Z,21.37
2019-01-17T18:24:41.099Z,25.43
2019-01-17T18:27:12.313Z,23.03
2019-01-17T18:29:43.466Z,23.03
2019-01-17T18:32:14.852Z,22.40
2019-01-17T18:34:46.080Z,22.50
2019-01-17T18:37:17.466Z,21.23
2019-01-17T18:39:48.559Z,22.53
2019-01-17T18:42:19.638Z,20.35
2019-01-17T18:44:51.176Z,18.95
2019-01-17T18:47:22.223Z,19.62
2019-01-17T18:49:56.750Z,20.37
2019-01-17T18:52:27.902Z,22.33
2019-01-17T18:54:58.964Z,24.27
2019-01-17T18:57:30.174Z,23.13
2019-01-17T19:00:01.433Z,18.67
2019-01-17T19:02:32.507Z,22.50
2019-01-17T19:05:04.041Z,22.93
2019-01-17T19:07:35.541Z,25.20
2019-01-17T19:10:06.941Z,23.07
2019-01-17T19:12:38.140Z,20.87
2019-01-17T19:15:11.021Z,23.23
2019-01-17T19:17:42.615Z,23.43
2019-01-17T19:20:15.153Z,21.65
2019-01-17T19:22:46.562Z,21.67
2019-01-17T19:25:18.030Z,21.35
2019-01-17T19:27:48.998Z,19.13
2019-01-17T19:30:22.126Z,18.93
2019-01-17T19:32:55.017Z,20.33
2019-01-17T19:35:26.440Z,16.67
2019-01-17T19:37:58.112Z,15.27
2019-01-17T19:40:30.743Z,14.17
2019-01-17T19:43:02.670Z,17.57
2019-01-17T19:45:34.091Z,14.90
2019-01-17T19:48:05.887Z,15.48
2019-01-17T19:50:38.710Z,17.30
2019-01-17T19:53:11.246Z,16.10
2019-01-17T19:55:42.800Z,17.23
2019-01-17T19:58:14.138Z,15.98
2019-01-17T20:00:45.217Z,16.37
2019-01-17T20:03:16.403Z,15.85
2019-01-17T20:05:47.779Z,17.07
2019-01-17T20:08:18.789Z,16.75
2019-01-17T20:10:51.099Z,15.93
2019-01-17T20:13:22.437Z,13.75
2019-01-17T20:15:53.542Z,15.70
2019-01-17T20:18:27.152Z,14.47
2019-01-17T20:20:58.306Z,14.73
2019-01-17T20:23:29.429Z,16.63
2019-01-17T20:26:00.641Z,14.63
2019-01-17T20:28:35.716Z,16.97
2019-01-17T20:31:06.106Z,17.97
2019-01-17T20:33:37.380Z,16.67
2019-01-17T20:36:09.135Z,18.00
2019-01-17T20:38:40.412Z,18.03
2019-01-17T20:41:11.779Z,17.87
2019-01-17T20:43:44.164Z,16.60
2019-01-17T20:46:15.461Z,17.80
2019-01-17T20:48:46.777Z,16.83
2019-01-17T20:51:18.259Z,15.50
2019-01-17T20:53:49.513Z,18.57
2019-01-17T20:56:20.561Z,19.13
2019-01-17T20:58:51.920Z,16.87
2019-01-17T21:01:30.568Z,17.32
2019-01-17T21:04:01.801Z,19.80
2019-01-17T21:06:33.071Z,20.70
2019-01-17T21:09:07.313Z,18.83
2019-01-17T21:11:40.037Z,19.67
2019-01-17T21:14:11.402Z,17.97
2019-01-17T21:16:42.910Z,17.67
2019-01-17T21:19:13.892Z,19.02
2019-01-17T21:21:45.206Z,16.93
2019-01-17T21:24:16.462Z,16.32
2019-01-17T21:26:47.611Z,15.97
2019-01-17T21:29:19.744Z,17.93
2019-01-17T21:31:51.050Z,19.67
2019-01-17T21:34:22.238Z,19.77
2019-01-17T21:36:53.916Z,16.30
2019-01-17T21:39:26.540Z,13.70
2019-01-17T21:41:58.003Z,14.60
2019-01-17T21:44:29.631Z,13.47
2019-01-17T21:47:01.002Z,11.53
2019-01-17T21:49:33.724Z,13.80
2019-01-17T21:52:05.152Z,13.00
2019-01-17T21:54:38.482Z,9.43
2019-01-17T21:57:09.802Z,11.03
2019-01-17T21:59:41.192Z,10.70
2019-01-17T22:02:12.673Z,8.98
2019-01-17T22:04:44.227Z,8.10
2019-01-17T22:07:15.423Z,9.30
2019-01-17T22:09:46.822Z,10.27
2019-01-17T22:12:18.192Z,9.03
2019-01-17T22:14:49.802Z,10.33
2019-01-17T22:17:21.257Z,8.20
2019-01-17T22:19:52.704Z,9.23
2019-01-17T22:22:24.339Z,11.30
2019-01-17T22:24:55.751Z,10.83
2019-01-17T22:27:27.216Z,8.27
2019-01-17T22:29:58.637Z,8.63
2019-01-17T22:32:29.794Z,8.93
2019-01-17T22:35:03.044Z,8.40
2019-01-17T22:37:34.460Z,8.57
2019-01-17T22:40:06.715Z,7.90
2019-01-17T22:42:37.927Z,8.57
2019-01-17T22:45:14.877Z,8.20
2019-01-17T22:47:46.537Z,11.20
2019-01-17T22:50:18.476Z,8.08
2019-01-17T22:52:50.528Z,9.37
2019-01-17T22:55:22.231Z,9.30
2019-01-17T22:57:54.334Z,11.20
2019-01-17T23:00:54.337Z,8.67
2019-01-17T23:03:46.002Z,9.50
2019-01-17T23:06:17.351Z,9.15
2019-01-17T23:08:48.786Z,8.63
2019-01-17T23:11:20.160Z,7.92
2019-01-17T23:13:53.528Z,9.07
2019-01-17T23:16:24.952Z,8.80
2019-01-17T23:18:56.450Z,8.33
2019-01-17T23:21:27.826Z,8.23
2019-01-17T23:24:02.232Z,8.30
2019-01-17T23:26:33.395Z,8.37
2019-01-17T23:29:05.384Z,8.77
2019-01-17T23:31:36.582Z,8.10
2019-01-17T23:34:07.649Z,8.00
2019-01-17T23:36:39.934Z,8.60
2019-01-17T23:39:12.040Z,6.90
2019-01-17T23:41:43.393Z,8.18
2019-01-17T23:44:14.705Z,7.83
2019-01-17T23:46:47.232Z,7.60
2019-01-17T23:49:18.354Z,7.60
2019-01-17T23:51:50.332Z,7.40
2019-01-17T23:54:21.708Z,7.53
2019-01-17T23:56:53.104Z,6.93
2019-01-17T23:59:24.384Z,7.23
